Time;durP1;ratioP1;P1;durP2;ratioP2;P2;SDS_P1;SDS_P2;PMS_P1;PMS_P2;Temp;Humidity;BMP_temperature;BMP_pressure;BME280_temperature;BME280_humidity;BME280_pressure;Samples;Min_cycle;Max_cycle;Signal;HPM_P1;HPM_P2
2023/09/17 00:00:32;;;;;;;1999.90;999.90;;;18.70;99.90;;;;;;5075291;28;20049;-77
2023/09/17 00:02:58;;;;;;;1999.90;999.90;;;18.60;99.90;;;;;;5075409;28;20104;-77
2023/09/17 00:05:24;;;;;;;1999.90;999.90;;;18.50;99.90;;;;;;5073643;28;20029;-77
2023/09/17 00:07:49;;;;;;;1999.90;999.90;;;18.40;99.90;;;;;;5075091;28;20033;-77
2023/09/17 00:10:15;;;;;;;1999.90;999.90;;;18.30;99.90;;;;;;5075287;28;20059;-77
2023/09/17 00:12:41;;;;;;;1999.90;999.90;;;18.30;99.90;;;;;;5073748;28;20043;-77
2023/09/17 00:15:07;;;;;;;1999.90;999.90;;;18.10;99.90;;;;;;5074874;28;20029;-77
2023/09/17 00:17:33;;;;;;;1999.90;999.90;;;18.30;99.90;;;;;;5074696;28;20037;-77
2023/09/17 00:19:58;;;;;;;1999.90;999.90;;;18.20;99.90;;;;;;5075064;28;20037;-77
2023/09/17 00:22:24;;;;;;;1999.90;999.90;;;18.20;99.90;;;;;;5075103;28;20033;-78
2023/09/17 00:24:50;;;;;;;1999.90;999.90;;;18.20;99.90;;;;;;5074354;28;20029;-78
2023/09/17 00:27:16;;;;;;;1999.90;999.90;;;18.20;99.90;;;;;;5072939;28;20094;-77
2023/09/17 00:29:41;;;;;;;1999.90;999.90;;;18.30;99.90;;;;;;5073525;28;20047;-77
2023/09/17 00:32:07;;;;;;;1999.90;999.90;;;18.30;99.90;;;;;;5073377;28;20407;-77
2023/09/17 00:34:33;;;;;;;1999.90;999.90;;;18.40;99.90;;;;;;5074762;28;20495;-78
2023/09/17 00:37:00;;;;;;;1999.90;999.90;;;18.20;99.90;;;;;;5073123;28;20040;-77
2023/09/17 00:39:26;;;;;;;1999.90;999.90;;;18.20;99.90;;;;;;5074815;28;20037;-77
2023/09/17 00:41:52;;;;;;;1999.90;999.90;;;18.40;99.90;;;;;;5073240;28;20058;-77
2023/09/17 00:44:18;;;;;;;1999.90;999.90;;;18.30;99.90;;;;;;5074687;28;20036;-78
2023/09/17 00:46:44;;;;;;;1999.90;999.90;;;18.30;99.90;;;;;;5074311;28;20470;-77
2023/09/17 00:49:13;;;;;;;1999.90;999.90;;;18.30;99.90;;;;;;5073967;28;20045;-77
2023/09/17 00:51:40;;;;;;;1999.90;999.90;;;18.40;99.90;;;;;;5074535;28;20025;-77
2023/09/17 00:54:07;;;;;;;1999.90;999.90;;;18.30;99.90;;;;;;5074589;28;20079;-77
2023/09/17 00:56:33;;;;;;;1999.90;999.90;;;18.20;99.90;;;;;;5078275;28;20025;-78
2023/09/17 00:58:59;;;;;;;1999.90;999.90;;;18.10;99.90;;;;;;5078500;28;20044;-77
2023/09/17 01:01:25;;;;;;;1999.90;999.90;;;18.10;99.90;;;;;;5079603;28;20502;-78
2023/09/17 01:03:51;;;;;;;1999.90;999.90;;;18.20;99.90;;;;;;5078788;28;20033;-77
2023/09/17 01:06:17;;;;;;;1999.90;999.90;;;18.20;99.90;;;;;;5080532;28;20033;-77
2023/09/17 01:08:43;;;;;;;1999.90;999.90;;;18.20;99.90;;;;;;5079590;28;20072;-77
2023/09/17 01:11:10;;;;;;;1999.90;999.90;;;18.20;99.90;;;;;;5079890;28;20550;-78
2023/09/17 01:13:42;;;;;;;1999.90;999.90;;;18.20;99.90;;;;;;5080754;28;20517;-77
2023/09/17 01:16:09;;;;;;;1999.90;999.90;;;18.20;99.90;;;;;;5080416;28;20875;-77
2023/09/17 01:18:35;;;;;;;1999.90;999.90;;;18.10;99.90;;;;;;5078748;28;20044;-78
2023/09/17 01:21:25;;;;;;;1999.90;999.90;;;18.10;99.90;;;;;;5080006;28;20033;-78
2023/09/17 01:24:18;;;;;;;1999.90;999.90;;;18.10;99.90;;;;;;5080454;28;20033;-77
2023/09/17 01:26:52;;;;;;;1999.90;999.90;;;18.00;99.90;;;;;;5077779;28;20036;-77
2023/09/17 01:29:22;;;;;;;1999.90;999.90;;;17.90;99.90;;;;;;5077439;28;20765;-77
2023/09/17 01:31:48;;;;;;;1999.90;999.90;;;17.90;99.90;;;;;;5078067;28;20025;-77
2023/09/17 01:34:13;;;;;;;1999.90;999.90;;;17.90;99.90;;;;;;5078095;28;20041;-77
2023/09/17 01:36:40;;;;;;;1999.90;999.90;;;17.80;99.90;;;;;;5078229;28;20120;-78
2023/09/17 01:39:14;;;;;;;1999.90;999.90;;;17.80;99.90;;;;;;5081294;28;20445;-77
2023/09/17 01:41:41;;;;;;;1999.90;999.90;;;17.70;99.90;;;;;;5080820;28;20059;-77
2023/09/17 01:44:08;;;;;;;1999.90;999.90;;;17.70;99.90;;;;;;5080659;28;20044;-78
2023/09/17 01:46:34;;;;;;;1999.90;999.90;;;17.70;99.90;;;;;;5078960;28;20025;-77
2023/09/17 01:49:01;;;;;;;1999.90;999.90;;;17.60;99.90;;;;;;5081007;28;20048;-77
2023/09/17 01:51:29;;;;;;;1999.90;999.90;;;17.50;99.90;;;;;;5079765;28;20845;-77
2023/09/17 01:53:55;;;;;;;1999.90;999.90;;;17.40;99.90;;;;;;5080302;28;20473;-77
2023/09/17 01:56:21;;;;;;;1999.90;999.90;;;17.40;99.90;;;;;;5077513;28;20029;-77
2023/09/17 01:58:47;;;;;;;1999.90;999.90;;;17.40;99.90;;;;;;5077816;28;20041;-77
2023/09/17 02:01:13;;;;;;;1999.90;999.90;;;17.30;99.90;;;;;;5077508;28;20060;-77
2023/09/17 02:03:39;;;;;;;1999.90;999.90;;;17.20;99.90;;;;;;5078441;28;20040;-77
2023/09/17 02:06:05;;;;;;;1999.90;999.90;;;17.00;99.90;;;;;;5078468;28;20398;-77
2023/09/17 02:08:30;;;;;;;1999.90;999.90;;;17.10;99.90;;;;;;5078536;28;20033;-77
2023/09/17 02:10:56;;;;;;;1999.90;999.90;;;17.10;99.90;;;;;;5080695;28;20032;-77
2023/09/17 02:13:22;;;;;;;1999.90;999.90;;;17.20;99.90;;;;;;5079166;28;20037;-78
2023/09/17 02:15:48;;;;;;;1999.90;999.90;;;17.20;99.90;;;;;;5080396;28;20036;-78
2023/09/17 02:18:14;;;;;;;1999.90;999.90;;;17.30;99.90;;;;;;5081342;28;20347;-77
2023/09/17 02:20:40;;;;;;;1999.90;999.90;;;17.30;99.90;;;;;;5080697;28;20029;-77
2023/09/17 02:23:06;;;;;;;1999.90;999.90;;;17.40;99.90;;;;;;5079851;28;20042;-77
2023/09/17 02:25:32;;;;;;;1999.90;999.90;;;17.40;99.90;;;;;;5079128;28;20032;-77
2023/09/17 02:27:58;;;;;;;1999.90;999.90;;;17.50;99.90;;;;;;5079347;28;20041;-78
2023/09/17 02:30:23;;;;;;;1999.90;999.90;;;17.60;99.90;;;;;;5080738;28;20414;-77
2023/09/17 02:32:49;;;;;;;1999.90;999.90;;;17.60;99.90;;;;;;5079489;28;20517;-78
2023/09/17 02:35:17;;;;;;;1999.90;999.90;;;17.60;99.90;;;;;;5079924;28;20033;-76
2023/09/17 02:37:43;;;;;;;1999.90;999.90;;;17.70;99.90;;;;;;5078030;28;20059;-78
2023/09/17 02:40:09;;;;;;;1999.90;999.90;;;17.70;99.90;;;;;;5078386;28;21074;-77
2023/09/17 02:42:36;;;;;;;1999.90;999.90;;;17.70;99.90;;;;;;5077729;28;20039;-77
2023/09/17 02:45:03;;;;;;;1999.90;999.90;;;17.70;99.90;;;;;;5078212;28;20025;-78
2023/09/17 02:47:29;;;;;;;1999.90;999.90;;;17.70;99.90;;;;;;5076099;28;20040;-77
2023/09/17 02:49:55;;;;;;;1999.90;999.90;;;17.80;99.90;;;;;;5077852;28;20037;-77
2023/09/17 02:52:20;;;;;;;1999.90;999.90;;;17.70;99.90;;;;;;5080529;28;20029;-78
2023/09/17 02:54:46;;;;;;;1999.90;999.90;;;17.70;99.90;;;;;;5077986;28;20144;-77
2023/09/17 02:57:11;;;;;;;1999.90;999.90;;;17.80;99.90;;;;;;5078709;28;20033;-77
2023/09/17 02:59:37;;;;;;;1999.90;999.90;;;17.80;99.90;;;;;;5080917;28;20439;-78
2023/09/17 03:02:03;;;;;;;1999.90;999.90;;;17.80;99.90;;;;;;5080213;28;20044;-77
2023/09/17 03:04:29;;;;;;;1999.90;999.90;;;17.80;99.90;;;;;;5079579;28;20048;-77
2023/09/17 03:06:55;;;;;;;1999.90;999.90;;;17.80;99.90;;;;;;5079177;28;20083;-77
2023/09/17 03:09:21;;;;;;;1999.90;999.90;;;17.80;99.90;;;;;;5079549;28;20037;-77
2023/09/17 03:11:46;;;;;;;1999.90;999.90;;;17.70;99.90;;;;;;5079234;28;20037;-77
2023/09/17 03:14:12;;;;;;;1999.90;999.90;;;17.60;99.90;;;;;;5078515;28;20132;-78
2023/09/17 03:16:37;;;;;;;1999.90;999.90;;;17.60;99.90;;;;;;5079709;28;20110;-77
2023/09/17 03:19:03;;;;;;;1999.90;999.90;;;17.60;99.90;;;;;;5080767;28;20045;-77
2023/09/17 03:21:29;;;;;;;1999.90;999.90;;;17.50;99.90;;;;;;5079430;28;20033;-77
2023/09/17 03:23:54;;;;;;;1999.90;999.90;;;17.60;99.90;;;;;;5078711;28;20061;-78
2023/09/17 03:26:22;;;;;;;1999.90;999.90;;;17.40;99.90;;;;;;5079325;28;20044;-77
2023/09/17 03:28:47;;;;;;;1999.90;999.90;;;17.40;99.90;;;;;;5078964;28;20037;-77
2023/09/17 03:31:13;;;;;;;1999.90;999.90;;;17.30;99.90;;;;;;5078667;28;20033;-78
2023/09/17 03:33:38;;;;;;;1999.90;999.90;;;17.40;99.90;;;;;;5079679;28;20036;-77
2023/09/17 03:36:04;;;;;;;1999.90;999.90;;;17.30;99.90;;;;;;5079533;28;20033;-77
2023/09/17 03:38:30;;;;;;;1999.90;999.90;;;17.20;99.90;;;;;;5079682;28;20041;-78
2023/09/17 03:40:59;;;;;;;1999.90;999.90;;;17.20;99.90;;;;;;5079875;28;20029;-77
2023/09/17 03:43:27;;;;;;;1999.90;999.90;;;17.10;99.90;;;;;;5079154;28;20083;-78
2023/09/17 03:45:52;;;;;;;1999.90;999.90;;;17.10;99.90;;;;;;5078669;28;20060;-78
2023/09/17 03:48:18;;;;;;;1999.90;999.90;;;17.00;99.90;;;;;;5076870;28;20060;-77
2023/09/17 03:50:44;;;;;;;1999.90;999.90;;;17.10;99.90;;;;;;5077318;28;20862;-77
2023/09/17 03:53:12;;;;;;;1999.90;999.90;;;17.00;99.90;;;;;;5077877;28;20045;-78
2023/09/17 03:55:38;;;;;;;1999.90;999.90;;;17.00;99.90;;;;;;5076921;28;20033;-78
2023/09/17 03:58:05;;;;;;;1999.90;999.90;;;17.00;99.90;;;;;;5076371;28;20083;-77
2023/09/17 04:00:30;;;;;;;1999.90;999.90;;;16.90;99.90;;;;;;5075827;28;20139;-78
2023/09/17 04:02:56;;;;;;;1999.90;999.90;;;16.80;99.90;;;;;;5075961;28;20190;-77
2023/09/17 04:05:22;;;;;;;1999.90;999.90;;;16.80;99.90;;;;;;5075282;28;20033;-78
2023/09/17 04:07:48;;;;;;;1999.90;999.90;;;16.60;99.90;;;;;;5076236;28;20036;-78
2023/09/17 04:10:16;;;;;;;1999.90;999.90;;;16.60;99.90;;;;;;5077543;28;20029;-78
2023/09/17 04:12:43;;;;;;;1999.90;999.90;;;16.60;99.90;;;;;;5078932;28;20037;-77
2023/09/17 04:15:17;;;;;;;1999.90;999.90;;;16.60;99.90;;;;;;5078884;28;20033;-77
2023/09/17 04:17:44;;;;;;;1999.90;999.90;;;16.40;99.90;;;;;;5078946;28;20029;-77
2023/09/17 04:20:13;;;;;;;1999.90;999.90;;;16.30;99.90;;;;;;5077768;28;20029;-77
2023/09/17 04:22:40;;;;;;;1999.90;999.90;;;16.20;99.90;;;;;;5076105;28;20037;-77
2023/09/17 04:25:06;;;;;;;1999.90;999.90;;;16.30;99.90;;;;;;5078156;28;20036;-77
2023/09/17 04:27:32;;;;;;;1999.90;999.90;;;16.30;99.90;;;;;;5078050;28;20044;-77
2023/09/17 04:29:57;;;;;;;1999.90;999.90;;;16.10;99.90;;;;;;5078143;28;20370;-77
2023/09/17 04:32:23;;;;;;;1999.90;999.90;;;16.20;99.90;;;;;;5076875;28;20036;-78
2023/09/17 04:34:48;;;;;;;1999.90;999.90;;;16.10;99.90;;;;;;5076898;28;20037;-77
2023/09/17 04:37:19;;;;;;;1999.90;999.90;;;16.00;99.90;;;;;;5076573;28;20546;-77
2023/09/17 04:39:46;;;;;;;1999.90;999.90;;;16.00;99.90;;;;;;5075143;28;20057;-78
2023/09/17 04:42:11;;;;;;;1999.90;999.90;;;16.00;99.90;;;;;;5073322;28;20115;-77
2023/09/17 04:44:37;;;;;;;1999.90;999.90;;;16.10;99.90;;;;;;5074693;28;20116;-77
2023/09/17 04:47:03;;;;;;;1999.90;999.90;;;16.00;99.90;;;;;;5074387;28;20040;-77
2023/09/17 04:49:30;;;;;;;1999.90;999.90;;;16.00;99.90;;;;;;5074657;28;20037;-77
2023/09/17 04:51:55;;;;;;;1999.90;999.90;;;15.90;99.90;;;;;;5073167;28;20056;-77
2023/09/17 04:54:23;;;;;;;1999.90;999.90;;;15.90;99.90;;;;;;5074436;28;20483;-77
2023/09/17 04:56:49;;;;;;;1999.90;999.90;;;16.00;99.90;;;;;;5072747;28;20517;-77
2023/09/17 04:59:14;;;;;;;1999.90;999.90;;;16.00;99.90;;;;;;5074656;28;20033;-78
2023/09/17 05:01:41;;;;;;;1999.90;999.90;;;15.90;99.90;;;;;;5074455;28;20091;-77
2023/09/17 05:04:07;;;;;;;1999.90;999.90;;;15.80;99.90;;;;;;5074415;28;20530;-77
2023/09/17 05:06:32;;;;;;;1999.90;999.90;;;15.80;99.90;;;;;;5074246;28;20082;-77
2023/09/17 05:08:58;;;;;;;1999.90;999.90;;;15.80;99.90;;;;;;5074408;28;20037;-77
2023/09/17 05:11:23;;;;;;;1999.90;999.90;;;15.60;99.90;;;;;;5076740;28;20036;-77
2023/09/17 05:13:49;;;;;;;1999.90;999.90;;;15.70;99.90;;;;;;5076497;28;20391;-77
2023/09/17 05:16:15;;;;;;;1999.90;999.90;;;15.80;99.90;;;;;;5077657;28;20021;-77
2023/09/17 05:18:41;;;;;;;1999.90;999.90;;;15.70;99.90;;;;;;5077966;28;20029;-77
2023/09/17 05:21:06;;;;;;;1999.90;999.90;;;15.90;99.90;;;;;;5077930;28;20040;-77
2023/09/17 05:23:32;;;;;;;1999.90;999.90;;;15.90;99.90;;;;;;5077670;28;20061;-77
2023/09/17 05:25:57;;;;;;;1999.90;999.90;;;15.90;99.90;;;;;;5075920;28;20033;-77
2023/09/17 05:28:25;;;;;;;1999.90;999.90;;;15.90;99.90;;;;;;5077816;28;20041;-77
2023/09/17 05:30:52;;;;;;;1999.90;999.90;;;15.90;99.90;;;;;;5077729;28;20387;-77
2023/09/17 05:33:18;;;;;;;1999.90;999.90;;;15.90;99.90;;;;;;5077484;28;20503;-77
2023/09/17 05:35:43;;;;;;;1999.90;999.90;;;15.90;99.90;;;;;;5077195;28;20041;-77
2023/09/17 05:38:09;;;;;;;1999.90;999.90;;;15.90;99.90;;;;;;5076452;28;20116;-78
2023/09/17 05:40:35;;;;;;;1999.90;999.90;;;16.00;99.90;;;;;;5076291;28;20037;-77
2023/09/17 05:43:00;;;;;;;1999.90;999.90;;;16.00;99.90;;;;;;5077555;28;20041;-77
2023/09/17 05:45:26;;;;;;;1999.90;999.90;;;16.00;99.90;;;;;;5075844;28;20036;-77
2023/09/17 05:47:52;;;;;;;1999.90;999.90;;;16.00;99.90;;;;;;5077308;28;20033;-77
2023/09/17 05:50:18;;;;;;;1999.90;999.90;;;16.20;99.90;;;;;;5077606;28;20033;-77
2023/09/17 05:52:43;;;;;;;1999.90;999.90;;;16.20;99.90;;;;;;5077509;28;20044;-77
2023/09/17 05:55:09;;;;;;;1999.90;999.90;;;16.30;99.90;;;;;;5076922;28;20502;-77
2023/09/17 05:57:34;;;;;;;1999.90;999.90;;;16.30;99.90;;;;;;5077212;28;20492;-78
2023/09/17 06:00:03;;;;;;;1999.90;999.90;;;16.50;99.90;;;;;;5077016;28;20040;-77
2023/09/17 06:02:29;;;;;;;1999.90;999.90;;;16.50;99.90;;;;;;5075672;28;20041;-77
2023/09/17 06:04:55;;;;;;;1999.90;999.90;;;16.70;99.90;;;;;;5077009;28;20029;-77
2023/09/17 06:07:21;;;;;;;1999.90;999.90;;;16.70;99.90;;;;;;5076635;28;20033;-77
2023/09/17 06:09:46;;;;;;;1999.90;999.90;;;16.80;99.90;;;;;;5077252;28;20037;-77
2023/09/17 06:12:12;;;;;;;1999.90;999.90;;;16.90;99.90;;;;;;5077185;28;20047;-77
2023/09/17 06:14:38;;;;;;;1999.90;999.90;;;17.00;99.90;;;;;;5075701;28;20032;-77
2023/09/17 06:17:04;;;;;;;1999.90;999.90;;;17.00;99.90;;;;;;5076647;28;20079;-77
2023/09/17 06:19:31;;;;;;;1999.90;999.90;;;17.10;99.90;;;;;;5075523;28;20037;-77
2023/09/17 06:21:57;;;;;;;1999.90;999.90;;;17.30;99.90;;;;;;5076314;28;20969;-77
2023/09/17 06:24:22;;;;;;;1999.90;999.90;;;17.20;99.90;;;;;;5076546;28;20175;-77
2023/09/17 06:26:48;;;;;;;1999.90;999.90;;;17.30;99.90;;;;;;5074958;28;20029;-77
2023/09/17 06:29:13;;;;;;;1999.90;999.90;;;17.30;99.90;;;;;;5076648;28;20052;-77
2023/09/17 06:31:40;;;;;;;1999.90;999.90;;;17.40;99.90;;;;;;5074997;28;20033;-77
2023/09/17 06:34:05;;;;;;;1999.90;999.90;;;17.50;99.90;;;;;;5076744;28;20037;-77
2023/09/17 06:36:31;;;;;;;1999.90;999.90;;;17.50;99.90;;;;;;5076276;28;20047;-77
2023/09/17 06:38:56;;;;;;;1999.90;999.90;;;17.50;99.90;;;;;;5075076;28;20037;-77
2023/09/17 06:41:22;;;;;;;1999.90;999.90;;;17.70;99.90;;;;;;5076653;28;20033;-78
2023/09/17 06:43:47;;;;;;;1999.90;999.90;;;17.80;99.90;;;;;;5076715;28;20033;-77
2023/09/17 06:46:13;;;;;;;1999.90;999.90;;;17.90;99.90;;;;;;5074629;28;20039;-79
2023/09/17 06:48:39;;;;;;;1999.90;999.90;;;17.90;99.90;;;;;;5076498;28;20119;-77
2023/09/17 06:51:04;;;;;;;1999.90;999.90;;;18.00;99.90;;;;;;5076509;28;20044;-77
2023/09/17 06:53:30;;;;;;;1999.90;999.90;;;18.10;99.90;;;;;;5076532;28;20033;-77
2023/09/17 06:55:58;;;;;;;1999.90;999.90;;;18.20;99.90;;;;;;5088624;22;20053;-78
2023/09/17 06:58:24;;;;;;;1999.90;999.90;;;18.30;99.90;;;;;;5056165;28;20034;-77
2023/09/17 07:00:49;;;;;;;1999.90;999.90;;;18.40;99.90;;;;;;5056109;28;20034;-78
2023/09/17 07:03:15;;;;;;;1999.90;999.90;;;18.50;99.90;;;;;;5056133;28;20033;-78
2023/09/17 07:05:40;;;;;;;1999.90;999.90;;;18.70;99.90;;;;;;5062600;28;20394;-78
2023/09/17 07:08:06;;;;;;;1999.90;999.90;;;18.80;99.90;;;;;;5076293;28;20406;-77
2023/09/17 07:10:32;;;;;;;1999.90;999.90;;;19.00;99.90;;;;;;5076290;28;20037;-77
2023/09/17 07:12:58;;;;;;;1999.90;999.90;;;19.20;99.90;;;;;;5076150;28;20048;-77
2023/09/17 07:15:25;;;;;;;1999.90;999.90;;;19.40;99.90;;;;;;5075956;28;20032;-77
2023/09/17 07:17:52;;;;;;;1999.90;999.90;;;19.50;99.90;;;;;;5074020;28;20044;-77
2023/09/17 07:20:19;;;;;;;1999.90;999.90;;;19.70;99.90;;;;;;5076133;28;20037;-77
2023/09/17 07:22:46;;;;;;;1999.90;999.90;;;19.80;99.90;;;;;;5074601;28;20482;-77
2023/09/17 07:25:12;;;;;;;1999.90;999.90;;;20.00;99.90;;;;;;5075837;28;20033;-77
2023/09/17 07:27:38;;;;;;;1999.90;999.90;;;20.10;99.90;;;;;;5072177;28;20033;-78
2023/09/17 07:30:05;;;;;;;1999.90;999.90;;;20.30;99.90;;;;;;5073734;28;20039;-78
2023/09/17 07:32:31;;;;;;;1999.90;999.90;;;20.30;99.90;;;;;;5074232;28;20079;-77
2023/09/17 07:34:57;;;;;;;1999.90;999.90;;;20.40;99.90;;;;;;5073364;28;20088;-78
2023/09/17 07:37:22;;;;;;;1999.90;999.90;;;20.50;99.90;;;;;;5075205;28;20474;-77
2023/09/17 07:39:55;;;;;;;1999.90;999.90;;;20.70;99.90;;;;;;5076954;28;20044;-78
2023/09/17 07:42:21;;;;;;;1999.90;999.90;;;20.80;99.90;;;;;;5076386;28;20414;-79
2023/09/17 07:44:47;;;;;;;1999.90;999.90;;;21.00;99.90;;;;;;5074405;28;20040;-79
2023/09/17 07:47:12;;;;;;;1999.90;999.90;;;21.00;99.90;;;;;;5074010;28;20048;-78
2023/09/17 07:49:38;;;;;;;1999.90;999.90;;;21.10;99.90;;;;;;5075824;28;20394;-83
2023/09/17 07:52:04;;;;;;;1999.90;999.90;;;21.20;99.90;;;;;;5074370;28;20032;-78
2023/09/17 07:54:31;;;;;;;1999.90;999.90;;;21.30;99.90;;;;;;5074054;28;20040;-78
2023/09/17 07:56:57;;;;;;;1999.90;999.90;;;21.40;99.90;;;;;;5074885;28;20037;-78
2023/09/17 07:59:22;;;;;;;1999.90;999.90;;;21.50;99.90;;;;;;5073956;28;20045;-79
2023/09/17 08:01:49;;;;;;;1999.90;999.90;;;21.60;99.90;;;;;;5075496;28;20100;-79
2023/09/17 08:04:15;;;;;;;1999.90;999.90;;;21.80;99.90;;;;;;5075344;28;20179;-78
2023/09/17 08:06:41;;;;;;;1999.90;999.90;;;21.90;99.90;;;;;;5073482;28;20608;-78
2023/09/17 08:09:07;;;;;;;1999.90;999.90;;;22.00;99.90;;;;;;5075240;28;20052;-76
2023/09/17 08:11:33;;;;;;;1999.90;999.90;;;22.10;99.90;;;;;;5074515;28;20131;-78
2023/09/17 08:13:58;;;;;;;1999.90;999.90;;;22.30;99.90;;;;;;5074809;28;20087;-78
2023/09/17 08:16:25;;;;;;;1999.90;999.90;;;22.30;99.90;;;;;;5075114;28;20025;-80
2023/09/17 08:18:51;;;;;;;1999.90;999.90;;;22.40;99.90;;;;;;5075322;28;20044;-78
2023/09/17 08:21:17;;;;;;;1999.90;999.90;;;22.40;99.90;;;;;;5073941;28;20044;-78
2023/09/17 08:23:45;;;;;;;1999.90;999.90;;;22.50;99.90;;;;;;5076652;28;20099;-84
2023/09/17 08:26:11;;;;;;;1999.90;999.90;;;22.60;99.90;;;;;;5069042;28;20525;-79
2023/09/17 08:28:37;;;;;;;1999.90;999.90;;;22.70;99.90;;;;;;5075001;28;20041;-82
2023/09/17 08:31:03;;;;;;;1999.90;999.90;;;22.90;99.90;;;;;;5076225;28;20127;-82
2023/09/17 08:33:29;;;;;;;1999.90;999.90;;;23.00;99.90;;;;;;5077326;28;20056;-81
2023/09/17 08:35:55;;;;;;;1999.90;999.90;;;23.20;99.90;;;;;;5079084;28;20467;-81
2023/09/17 08:38:20;;;;;;;1999.90;999.90;;;23.50;99.90;;;;;;5075489;28;20037;-81
2023/09/17 08:40:47;;;;;;;1999.90;999.90;;;23.80;99.90;;;;;;5074386;28;20036;-82
2023/09/17 08:43:14;;;;;;;1999.90;999.90;;;24.00;99.90;;;;;;5074385;28;20305;-82
2023/09/17 08:45:41;;;;;;;1999.90;999.90;;;24.30;99.90;;;;;;5073285;28;20186;-83
2023/09/17 08:48:07;;;;;;;1999.90;999.90;;;24.50;99.90;;;;;;5073882;28;20102;-83
2023/09/17 08:50:35;;;;;;;1999.90;999.90;;;24.80;99.90;;;;;;5073992;28;20036;-82
2023/09/17 08:53:05;;;;;;;1999.90;999.90;;;25.00;99.90;;;;;;5074035;28;20028;-82
2023/09/17 08:55:31;;;;;;;1999.90;999.90;;;25.10;99.90;;;;;;5073019;28;20040;-82
2023/09/17 08:58:17;;;;;;;1999.90;999.90;;;25.00;99.90;;;;;;5073483;28;20442;-81
2023/09/17 09:00:50;;;;;;;1999.90;999.90;;;24.90;99.90;;;;;;5074129;28;20037;-81
2023/09/17 09:03:20;;;;;;;1999.90;999.90;;;24.80;99.90;;;;;;5075616;28;20025;-81
2023/09/17 09:05:47;;;;;;;1999.90;999.90;;;24.90;99.90;;;;;;5074394;28;20028;-80
2023/09/17 09:08:14;;;;;;;1999.90;999.90;;;25.00;99.90;;;;;;5074135;28;20081;-81
2023/09/17 09:10:40;;;;;;;1999.90;999.90;;;25.10;99.90;;;;;;5075847;28;20040;-83
2023/09/17 09:13:05;;;;;;;1999.90;999.90;;;25.10;99.90;;;;;;5075836;28;20037;-80
2023/09/17 09:15:32;;;;;;;1999.90;999.90;;;25.30;99.90;;;;;;5076252;28;20491;-82
2023/09/17 09:17:58;;;;;;;1999.90;999.90;;;25.50;99.90;;;;;;5075411;28;20041;-82
2023/09/17 09:20:23;;;;;;;1999.90;999.90;;;25.60;99.90;;;;;;5073628;28;20660;-81
2023/09/17 09:22:49;;;;;;;1999.90;999.90;;;25.70;99.90;;;;;;5073462;28;20091;-81
2023/09/17 09:25:16;;;;;;;1999.90;999.90;;;25.80;99.90;;;;;;5073490;28;20028;-81
2023/09/17 09:27:42;;;;;;;1999.90;999.90;;;26.00;99.90;;;;;;5074341;28;20045;-87
2023/09/17 09:30:09;;;;;;;1999.90;999.90;;;26.00;99.90;;;;;;5072700;28;20037;-80
2023/09/17 09:32:37;;;;;;;1999.90;999.90;;;26.00;99.90;;;;;;5074745;28;20047;-80
2023/09/17 09:35:03;;;;;;;1999.90;999.90;;;26.00;99.90;;;;;;5072932;28;20049;-80
2023/09/17 09:37:29;;;;;;;1999.90;999.90;;;26.00;99.90;;;;;;5072842;28;20033;-80
2023/09/17 09:39:55;;;;;;;1999.90;999.90;;;26.10;99.90;;;;;;5073850;28;20033;-81
2023/09/17 09:42:23;;;;;;;1999.90;999.90;;;26.30;99.90;;;;;;5072259;28;20123;-79
2023/09/17 09:44:50;;;;;;;1999.90;999.90;;;26.40;99.90;;;;;;5073793;28;20537;-81
2023/09/17 09:47:16;;;;;;;1999.90;999.90;;;26.70;99.90;;;;;;5070356;28;20037;-80
2023/09/17 09:49:43;;;;;;;1999.90;999.90;;;26.70;99.90;;;;;;5073287;28;20165;-80
2023/09/17 09:52:12;;;;;;;1999.90;999.90;;;26.90;99.90;;;;;;5073458;28;20029;-82
2023/09/17 09:54:43;;;;;;;1999.90;999.90;;;27.10;99.90;;;;;;5059743;28;20045;-80
2023/09/17 09:57:16;;;;;;;1999.90;999.90;;;27.30;99.90;;;;;;5072636;28;20040;-80
2023/09/17 09:59:44;;;;;;;1999.90;999.90;;;27.50;98.70;;;;;;5076469;28;20036;-80
2023/09/17 10:02:12;;;;;;;1999.90;999.90;;;27.60;98.60;;;;;;5077364;28;20036;-80
2023/09/17 10:04:38;;;;;;;1999.90;999.90;;;27.60;98.30;;;;;;5075512;28;20595;-80
2023/09/17 10:07:04;;;;;;;1999.90;999.90;;;27.60;98.10;;;;;;5075158;28;20119;-80
2023/09/17 10:09:30;;;;;;;1999.90;999.90;;;27.50;97.00;;;;;;5075883;28;20037;-80
2023/09/17 10:11:57;;;;;;;1999.90;999.90;;;27.70;96.90;;;;;;5075781;28;20036;-81
2023/09/17 10:14:25;;;;;;;1999.90;999.90;;;27.90;96.70;;;;;;5076464;28;20041;-79
2023/09/17 10:16:52;;;;;;;1999.90;999.90;;;28.00;96.60;;;;;;5077547;28;20040;-83
2023/09/17 10:19:21;;;;;;;1999.90;999.90;;;28.00;95.50;;;;;;5076368;28;20041;-82
2023/09/17 10:21:48;;;;;;;1999.90;999.90;;;28.20;94.40;;;;;;5076612;28;20500;-81
2023/09/17 10:24:16;;;;;;;1999.90;999.90;;;28.10;94.40;;;;;;5070288;28;20033;-82
2023/09/17 10:26:43;;;;;;;1999.90;999.90;;;28.20;93.10;;;;;;5098272;28;20060;-81
2023/09/17 10:29:11;;;;;;;1999.90;999.90;;;28.30;93.30;;;;;;5098202;28;20063;-81
2023/09/17 10:31:37;;;;;;;1999.90;999.90;;;28.50;93.40;;;;;;5097966;28;20055;-82
2023/09/17 10:34:04;;;;;;;1999.90;999.90;;;28.50;92.80;;;;;;5079249;28;20033;-81
2023/09/17 10:36:31;;;;;;;1999.90;999.90;;;28.60;92.60;;;;;;5079796;28;20033;-82
2023/09/17 10:38:59;;;;;;;1999.90;999.90;;;28.30;92.60;;;;;;5076779;28;20033;-81
2023/09/17 10:41:29;;;;;;;1999.90;999.90;;;28.00;93.30;;;;;;5076096;28;20920;-82
2023/09/17 10:43:57;;;;;;;1999.90;999.90;;;28.30;93.20;;;;;;5076325;28;20120;-82
2023/09/17 10:46:23;;;;;;;1999.90;999.90;;;28.50;93.00;;;;;;5074325;28;20033;-81
2023/09/17 10:48:50;;;;;;;1999.90;999.90;;;28.80;92.10;;;;;;5076450;28;20033;-81
2023/09/17 10:51:17;;;;;;;1999.90;999.90;;;28.90;90.90;;;;;;5075183;28;20028;-81
2023/09/17 10:53:43;;;;;;;1999.90;999.90;;;29.20;90.80;;;;;;5075107;28;20040;-81
2023/09/17 10:56:10;;;;;;;1999.90;999.90;;;29.20;90.40;;;;;;5074555;28;20081;-80
2023/09/17 10:58:39;;;;;;;1999.90;999.90;;;29.40;91.10;;;;;;5077127;28;20037;-81
2023/09/17 11:01:07;;;;;;;1999.90;999.90;;;29.40;90.50;;;;;;5076550;28;20032;-81
2023/09/17 11:03:35;;;;;;;1999.90;999.90;;;29.40;91.30;;;;;;5076279;28;20609;-81
2023/09/17 11:06:02;;;;;;;1999.90;999.90;;;29.00;90.70;;;;;;5074427;28;20060;-83
2023/09/17 11:08:28;;;;;;;1999.90;999.90;;;29.00;91.30;;;;;;5075780;28;20037;-82
2023/09/17 11:10:54;;;;;;;1999.90;999.90;;;29.00;90.60;;;;;;5075217;28;20025;-80
2023/09/17 11:13:20;;;;;;;1999.90;999.90;;;28.80;91.20;;;;;;5076367;28;20041;-86
2023/09/17 11:15:48;;;;;;;1999.90;999.90;;;29.00;90.90;;;;;;5075894;28;20037;-82
2023/09/17 11:18:15;;;;;;;1999.90;999.90;;;29.20;91.60;;;;;;5074631;28;20033;-82
2023/09/17 11:21:06;;;;;;;1999.90;999.90;;;29.00;91.90;;;;;;5074567;28;20033;-83
2023/09/17 11:23:37;;;;;;;1999.90;999.90;;;29.20;90.80;;;;;;5066912;28;20139;-83
2023/09/17 11:26:02;;;;;;;1999.90;999.90;;;29.50;91.30;;;;;;5073944;28;20040;-83
2023/09/17 11:28:36;;;;;;;1999.90;999.90;;;29.90;89.70;;;;;;5074327;28;20052;-84
2023/09/17 11:31:02;;;;;;;1999.90;999.90;;;30.20;89.80;;;;;;5073692;28;20119;-85
2023/09/17 11:33:29;;;;;;;1999.90;999.90;;;30.20;89.30;;;;;;5073972;28;20037;-84
2023/09/17 11:35:57;;;;;;;1999.90;999.90;;;30.40;88.80;;;;;;5072936;28;20349;-83
2023/09/17 11:38:27;;;;;;;1999.90;999.90;;;30.20;86.50;;;;;;5074774;28;20537;-87
2023/09/17 11:41:03;;;;;;;1999.90;999.90;;;30.40;89.20;;;;;;5073584;28;20041;-86
2023/09/17 11:43:30;;;;;;;1999.90;999.90;;;30.40;86.70;;;;;;5074826;28;20060;-84
2023/09/17 11:45:56;;;;;;;1999.90;999.90;;;30.60;87.40;;;;;;5073862;28;20502;-86
2023/09/17 11:48:21;;;;;;;1999.90;999.90;;;30.80;87.70;;;;;;5073106;28;20052;-82
2023/09/17 11:50:47;;;;;;;1999.90;999.90;;;30.70;87.50;;;;;;5074163;28;20494;-84
2023/09/17 11:53:14;;;;;;;1999.90;999.90;;;30.60;87.20;;;;;;5075510;28;20036;-85
2023/09/17 11:55:40;;;;;;;1999.90;999.90;;;30.60;85.20;;;;;;5073282;28;20076;-86